createdAt,value
2023-04-10T00:02:09.280Z,7.83
2023-04-10T00:04:36.158Z,7.83
2023-04-10T00:07:02.946Z,7.86
2023-04-10T00:09:31.006Z,7.80
2023-04-10T00:11:57.807Z,7.79
2023-04-10T00:14:24.699Z,7.78
2023-04-10T00:16:51.455Z,7.69
2023-04-10T00:19:18.243Z,7.69
2023-04-10T00:21:44.976Z,7.65
2023-04-10T00:24:11.680Z,7.67
2023-04-10T00:26:38.362Z,7.66
2023-04-10T00:29:05.454Z,7.64
2023-04-10T00:31:32.481Z,7.60
2023-04-10T00:33:59.246Z,7.53
2023-04-10T00:36:27.120Z,7.50
2023-04-10T00:38:54.008Z,7.48
2023-04-10T00:41:20.709Z,7.41
2023-04-10T00:43:47.403Z,7.31
2023-04-10T00:46:14.142Z,7.19
2023-04-10T00:48:41.018Z,7.07
2023-04-10T00:51:07.812Z,7.04
2023-04-10T00:53:34.527Z,7.02
2023-04-10T00:56:01.964Z,7.04
2023-04-10T00:58:28.980Z,7.06
2023-04-10T01:00:56.439Z,7.12
2023-04-10T01:03:24.044Z,7.11
2023-04-10T01:05:52.328Z,7.13
2023-04-10T01:08:28.150Z,7.13
2023-04-10T01:11:15.977Z,7.17
2023-04-10T01:13:55.244Z,7.16
2023-04-10T01:16:30.792Z,7.13
2023-04-10T01:19:08.356Z,7.11
2023-04-10T01:21:36.725Z,7.09
2023-04-10T01:24:21.494Z,7.07
2023-04-10T01:27:13.718Z,7.08
2023-04-10T01:29:44.821Z,7.07
2023-04-10T01:32:14.342Z,7.08
2023-04-10T01:34:44.322Z,7.05
2023-04-10T01:37:30.511Z,7.03
2023-04-10T01:40:07.251Z,7.07
2023-04-10T01:42:45.640Z,7.08
2023-04-10T01:45:17.665Z,7.06
2023-04-10T01:47:49.456Z,7.03
2023-04-10T01:50:17.320Z,7.03
2023-04-10T01:52:44.642Z,7.04
2023-04-10T01:55:18.176Z,7.03
2023-04-10T01:57:50.978Z,7.08
2023-04-10T02:00:19.194Z,7.06
2023-04-10T02:02:46.227Z,7.06
2023-04-10T02:05:16.237Z,7.07
2023-04-10T02:07:47.108Z,6.98
2023-04-10T02:10:37.234Z,7.00
2023-04-10T02:13:08.026Z,7.00
2023-04-10T02:15:35.267Z,7.00
2023-04-10T02:18:05.087Z,6.99
2023-04-10T02:20:32.628Z,7.06
2023-04-10T02:23:03.742Z,7.00
2023-04-10T02:25:34.424Z,7.00
2023-04-10T02:28:05.439Z,6.97
2023-04-10T02:30:33.334Z,6.96
2023-04-10T02:33:01.066Z,6.93
2023-04-10T02:35:30.134Z,6.94
2023-04-10T02:37:57.240Z,6.91
2023-04-10T02:40:24.234Z,6.90
2023-04-10T02:42:57.241Z,6.84
2023-04-10T02:45:23.931Z,6.81
2023-04-10T02:47:51.299Z,6.78
2023-04-10T02:50:19.060Z,6.75
2023-04-10T02:52:46.609Z,6.64
2023-04-10T02:55:13.643Z,6.56
2023-04-10T02:57:42.850Z,6.53
2023-04-10T03:00:10.471Z,6.56
2023-04-10T03:03:09.676Z,6.57
2023-04-10T03:05:49.824Z,6.44
2023-04-10T03:08:20.278Z,6.36
2023-04-10T03:10:50.824Z,6.32
2023-04-10T03:13:20.608Z,6.30
2023-04-10T03:15:47.372Z,6.29
2023-04-10T03:18:14.186Z,6.30
2023-04-10T03:20:45.035Z,6.33
2023-04-10T03:23:12.005Z,6.29
2023-04-10T03:25:38.758Z,6.31
2023-04-10T03:28:07.215Z,6.32
2023-04-10T03:30:36.192Z,6.32
2023-04-10T03:33:03.432Z,6.34
2023-04-10T03:35:30.361Z,6.30
2023-04-10T03:37:57.498Z,6.29
2023-04-10T03:40:24.307Z,6.29
2023-04-10T03:42:51.143Z,6.29
2023-04-10T03:45:18.192Z,6.28
2023-04-10T03:47:45.261Z,6.28
2023-04-10T03:50:14.900Z,6.29
2023-04-10T03:52:49.895Z,6.29
2023-04-10T03:55:19.249Z,6.30
2023-04-10T03:57:47.375Z,6.28
2023-04-10T04:00:17.512Z,6.24
2023-04-10T04:02:47.153Z,6.19
2023-04-10T04:05:21.302Z,6.17
2023-04-10T04:08:14.168Z,6.17
2023-04-10T04:10:58.674Z,6.13
2023-04-10T04:13:52.881Z,6.08
2023-04-10T04:16:38.755Z,6.01
2023-04-10T04:19:27.318Z,5.95
2023-04-10T04:22:08.384Z,5.96
2023-04-10T04:24:57.858Z,6.02
2023-04-10T04:27:44.855Z,6.01
2023-04-10T04:30:30.448Z,6.06
2023-04-10T04:33:26.450Z,6.04
2023-04-10T04:35:57.158Z,6.04
2023-04-10T04:38:59.214Z,6.07
2023-04-10T04:41:49.249Z,6.05
2023-04-10T04:44:37.480Z,6.10
2023-04-10T04:47:15.899Z,6.12
2023-04-10T04:49:55.369Z,6.19
2023-04-10T04:52:22.087Z,6.21
2023-04-10T04:55:04.653Z,6.24
2023-04-10T04:57:37.109Z,6.26
2023-04-10T05:00:11.161Z,6.31
2023-04-10T05:02:58.274Z,6.34
2023-04-10T05:05:43.188Z,6.35
2023-04-10T05:08:27.910Z,6.36
2023-04-10T05:11:02.902Z,6.38
2023-04-10T05:13:41.718Z,6.36
2023-04-10T05:16:23.504Z,6.37
2023-04-10T05:19:13.302Z,6.44
2023-04-10T05:22:00.495Z,6.47
2023-04-10T05:24:55.230Z,6.51
2023-04-10T05:27:36.605Z,6.56
2023-04-10T05:30:21.954Z,6.60
2023-04-10T05:33:07.289Z,6.66
2023-04-10T05:35:46.493Z,6.73
2023-04-10T05:38:32.909Z,6.79
2023-04-10T05:41:11.182Z,6.86
2023-04-10T05:43:56.719Z,6.93
2023-04-10T05:46:46.703Z,7.02
2023-04-10T05:49:33.706Z,7.10
2023-04-10T05:52:14.097Z,7.15
2023-04-10T05:54:59.477Z,7.21
2023-04-10T05:57:39.385Z,7.38
2023-04-10T06:00:24.799Z,7.46
2023-04-10T06:03:24.228Z,7.57
2023-04-10T06:05:56.693Z,7.65
2023-04-10T06:08:23.456Z,7.69
2023-04-10T06:10:50.176Z,7.73
2023-04-10T06:13:16.952Z,7.80
2023-04-10T06:15:43.754Z,7.88
2023-04-10T06:18:10.674Z,7.97
2023-04-10T06:20:37.603Z,8.01
2023-04-10T06:23:04.257Z,8.01
2023-04-10T06:25:30.982Z,8.05
2023-04-10T06:28:02.353Z,8.01
2023-04-10T06:30:30.725Z,8.02
2023-04-10T06:32:57.852Z,8.04
2023-04-10T06:35:24.744Z,8.06
2023-04-10T06:37:51.499Z,8.12
2023-04-10T06:40:18.285Z,8.11
2023-04-10T06:42:45.048Z,8.14
2023-04-10T06:45:27.366Z,8.08
2023-04-10T06:47:54.351Z,8.16
2023-04-10T06:50:21.205Z,8.27
2023-04-10T06:52:48.182Z,8.34
2023-04-10T06:55:14.947Z,8.47
2023-04-10T06:57:42.209Z,8.47
2023-04-10T07:00:09.667Z,8.51
2023-04-10T07:02:36.427Z,8.57
2023-04-10T07:05:03.305Z,8.69
2023-04-10T07:07:30.122Z,8.79
2023-04-10T07:09:58.136Z,8.89
2023-04-10T07:12:24.908Z,8.98
2023-04-10T07:14:52.001Z,9.18
2023-04-10T07:17:18.740Z,9.25
2023-04-10T07:19:45.436Z,9.36
2023-04-10T07:22:12.817Z,9.53
2023-04-10T07:24:39.513Z,9.72
2023-04-10T07:27:06.274Z,9.96
2023-04-10T07:29:33.019Z,10.08
2023-04-10T07:32:00.155Z,10.17
2023-04-10T07:34:27.073Z,10.29
2023-04-10T07:36:54.103Z,10.44
2023-04-10T07:39:20.811Z,10.54
2023-04-10T07:41:47.525Z,10.73
2023-04-10T07:44:14.781Z,10.78
2023-04-10T07:46:41.964Z,10.83
2023-04-10T07:49:09.080Z,10.88
2023-04-10T07:51:36.278Z,11.01
2023-04-10T07:54:04.192Z,11.27
2023-04-10T07:56:33.506Z,11.38
2023-04-10T07:59:01.382Z,11.49
2023-04-10T08:01:29.068Z,11.61
2023-04-10T08:03:56.752Z,11.71
2023-04-10T08:06:23.768Z,12.04
2023-04-10T08:08:52.546Z,12.28
2023-04-10T08:11:27.993Z,12.50
2023-04-10T08:14:02.077Z,12.85
2023-04-10T08:16:30.266Z,13.15
2023-04-10T08:18:57.917Z,13.28
2023-04-10T08:21:26.788Z,13.54
2023-04-10T08:23:54.440Z,13.89
2023-04-10T08:26:21.619Z,13.83
2023-04-10T08:28:50.816Z,13.89
2023-04-10T08:31:18.426Z,13.90
2023-04-10T08:33:45.200Z,13.83
2023-04-10T08:36:13.072Z,13.67
2023-04-10T08:38:40.077Z,13.84
2023-04-10T08:41:06.930Z,13.91
2023-04-10T08:43:35.338Z,14.01
2023-04-10T08:46:02.605Z,14.03
2023-04-10T08:48:35.223Z,14.24
2023-04-10T08:51:04.944Z,14.31
2023-04-10T08:53:34.024Z,14.54
2023-04-10T08:56:03.100Z,14.66
2023-04-10T08:58:29.978Z,14.72
2023-04-10T09:00:56.868Z,14.57
2023-04-10T09:03:24.227Z,14.42
2023-04-10T09:05:51.038Z,14.58
2023-04-10T09:08:17.774Z,14.67
2023-04-10T09:10:44.477Z,14.75
2023-04-10T09:13:11.279Z,15.09
2023-04-10T09:15:57.013Z,15.69
2023-04-10T09:18:40.690Z,15.71
2023-04-10T09:21:11.544Z,15.73
2023-04-10T09:23:38.446Z,15.13
2023-04-10T09:26:24.621Z,15.07
2023-04-10T09:29:02.718Z,15.06
2023-04-10T09:31:37.050Z,15.24
2023-04-10T09:34:07.596Z,15.12
2023-04-10T09:36:34.418Z,15.32
2023-04-10T09:39:01.799Z,15.52
2023-04-10T09:41:28.811Z,15.48
2023-04-10T09:44:16.766Z,15.49
2023-04-10T09:46:44.361Z,15.82
2023-04-10T09:49:11.381Z,15.75
2023-04-10T09:51:39.651Z,15.67
2023-04-10T09:54:06.985Z,15.85
2023-04-10T09:56:37.225Z,15.77
2023-04-10T09:59:04.979Z,15.89
2023-04-10T10:01:35.252Z,15.94
2023-04-10T10:04:05.509Z,16.13
2023-04-10T10:06:33.074Z,16.42
2023-04-10T10:09:04.377Z,16.91
2023-04-10T10:11:34.332Z,16.92
2023-04-10T10:14:04.129Z,16.97
2023-04-10T10:16:43.789Z,17.27
2023-04-10T10:19:24.755Z,17.21
2023-04-10T10:21:52.654Z,17.47
2023-04-10T10:24:21.261Z,17.89
2023-04-10T10:26:48.174Z,18.03
2023-04-10T10:29:17.568Z,18.26
2023-04-10T10:31:44.793Z,18.26
2023-04-10T10:34:11.702Z,18.34
2023-04-10T10:36:41.502Z,18.66
2023-04-10T10:40:02.438Z,19.02
2023-04-10T10:42:40.555Z,19.29
2023-04-10T10:45:11.742Z,19.34
2023-04-10T10:47:51.054Z,19.30
2023-04-10T10:50:17.928Z,19.09
2023-04-10T10:52:56.312Z,18.94
2023-04-10T10:55:25.965Z,18.73
2023-04-10T10:57:56.167Z,18.72
2023-04-10T11:00:24.655Z,18.74
2023-04-10T11:03:10.965Z,18.82
2023-04-10T11:06:07.459Z,19.16
2023-04-10T11:08:35.318Z,19.17
2023-04-10T11:11:03.067Z,19.08
2023-04-10T11:13:31.175Z,19.14
2023-04-10T11:15:58.683Z,19.08
2023-04-10T11:18:55.989Z,19.12
2023-04-10T11:21:29.575Z,19.97
2023-04-10T11:23:56.326Z,20.85
2023-04-10T11:26:35.395Z,21.57
2023-04-10T11:29:02.785Z,21.91
2023-04-10T11:31:29.638Z,22.16
2023-04-10T11:33:56.749Z,21.97
2023-04-10T11:36:23.826Z,21.71
2023-04-10T11:38:57.424Z,22.41
2023-04-10T11:41:28.923Z,23.13
2023-04-10T11:43:55.722Z,24.03
2023-04-10T11:46:22.775Z,24.59
2023-04-10T11:48:53.818Z,24.77
2023-04-10T11:51:20.869Z,24.74
2023-04-10T11:53:51.233Z,25.01
2023-04-10T11:56:22.164Z,24.19
2023-04-10T11:58:55.396Z,23.79
2023-04-10T12:01:22.822Z,23.69
2023-04-10T12:03:50.130Z,23.90
2023-04-10T12:06:19.566Z,23.80
2023-04-10T12:08:49.651Z,23.87
2023-04-10T12:11:18.067Z,23.56
2023-04-10T12:13:45.154Z,23.79
2023-04-10T12:16:12.559Z,24.13
2023-04-10T12:18:39.490Z,23.96
2023-04-10T12:21:08.370Z,24.72
2023-04-10T12:23:38.383Z,25.05
2023-04-10T12:26:16.404Z,25.07
2023-04-10T12:28:52.523Z,25.03
2023-04-10T12:31:28.205Z,24.77
2023-04-10T12:33:58.188Z,24.23
2023-04-10T12:36:29.414Z,23.73
2023-04-10T12:39:01.347Z,22.76
2023-04-10T12:41:33.504Z,22.03
2023-04-10T12:44:11.462Z,21.62
2023-04-10T12:46:38.331Z,21.56
2023-04-10T12:49:11.756Z,21.74
2023-04-10T12:51:52.107Z,22.10
2023-04-10T12:54:32.167Z,22.28
2023-04-10T12:56:59.080Z,22.18
2023-04-10T12:59:26.759Z,22.31
2023-04-10T13:01:54.175Z,22.01
2023-04-10T13:04:21.193Z,22.00
2023-04-10T13:06:48.750Z,22.12
2023-04-10T13:09:16.027Z,22.13
2023-04-10T13:11:43.394Z,22.04
2023-04-10T13:14:13.983Z,21.74
2023-04-10T13:16:40.846Z,21.36
2023-04-10T13:19:07.893Z,20.91
2023-04-10T13:21:34.657Z,20.94
2023-04-10T13:24:01.361Z,20.82
2023-04-10T13:26:28.197Z,20.77
2023-04-10T13:28:57.494Z,20.86
2023-04-10T13:31:24.293Z,20.67
2023-04-10T13:33:51.041Z,20.48
2023-04-10T13:36:17.787Z,20.42
2023-04-10T13:38:44.542Z,20.73
2023-04-10T13:41:11.240Z,20.86
2023-04-10T13:43:38.012Z,21.14
2023-04-10T13:46:05.622Z,21.06
2023-04-10T13:48:40.028Z,20.97
2023-04-10T13:51:10.502Z,20.88
2023-04-10T13:53:37.206Z,20.84
2023-04-10T13:56:04.092Z,21.00
2023-04-10T13:58:32.240Z,21.10
2023-04-10T14:00:59.156Z,21.08
2023-04-10T14:03:26.095Z,20.90
2023-04-10T14:05:53.170Z,20.79
2023-04-10T14:08:20.308Z,20.42
2023-04-10T14:10:50.962Z,20.04
2023-04-10T14:13:18.382Z,19.82
2023-04-10T14:15:45.325Z,19.85
2023-04-10T14:18:12.246Z,20.03
2023-04-10T14:20:39.357Z,20.21
2023-04-10T14:23:06.060Z,20.48
2023-04-10T14:25:32.756Z,20.26
2023-04-10T14:28:00.019Z,20.38
2023-04-10T14:30:31.115Z,20.36
2023-04-10T14:32:58.080Z,20.55
2023-04-10T14:35:24.962Z,20.72
2023-04-10T14:37:51.691Z,20.77
2023-04-10T14:40:18.409Z,20.90
2023-04-10T14:42:46.074Z,20.83
2023-04-10T14:45:12.779Z,20.77
2023-04-10T14:47:42.244Z,20.42
2023-04-10T14:50:09.228Z,20.46
2023-04-10T14:52:35.898Z,20.28
2023-04-10T14:55:02.691Z,20.09
2023-04-10T14:57:31.966Z,19.91
2023-04-10T15:00:01.426Z,19.61
2023-04-10T15:02:28.668Z,19.59
2023-04-10T15:04:55.592Z,19.72
2023-04-10T15:07:22.708Z,19.84
2023-04-10T15:09:49.764Z,19.95
2023-04-10T15:12:16.824Z,19.84
2023-04-10T15:14:43.551Z,19.98
2023-04-10T15:17:10.404Z,20.06
2023-04-10T15:19:37.145Z,20.09
2023-04-10T15:22:03.865Z,19.92
2023-04-10T15:24:32.510Z,19.79
2023-04-10T15:27:03.787Z,19.75
2023-04-10T15:29:30.734Z,19.70
2023-04-10T15:31:59.977Z,19.78
2023-04-10T15:34:26.675Z,19.66
2023-04-10T15:36:53.404Z,19.22
2023-04-10T15:39:20.085Z,19.37
2023-04-10T15:41:50.174Z,19.33
2023-04-10T15:44:17.064Z,19.35
2023-04-10T15:46:44.146Z,19.28
2023-04-10T15:49:10.916Z,19.25
2023-04-10T15:51:37.613Z,19.24
2023-04-10T15:54:05.124Z,19.25
2023-04-10T15:56:33.077Z,19.18
2023-04-10T15:59:00.149Z,19.01
2023-04-10T16:01:26.875Z,18.85
2023-04-10T16:03:54.118Z,18.70
2023-04-10T16:06:21.203Z,18.95
2023-04-10T16:08:47.915Z,18.96
2023-04-10T16:11:14.623Z,19.04
2023-04-10T16:13:44.395Z,19.10
2023-04-10T16:16:15.978Z,19.10
2023-04-10T16:18:44.973Z,19.04
2023-04-10T16:21:13.456Z,18.96
2023-04-10T16:23:40.133Z,18.94
2023-04-10T16:26:06.876Z,18.92
2023-04-10T16:28:33.634Z,18.95
2023-04-10T16:31:00.450Z,18.92
2023-04-10T16:33:27.748Z,18.65
2023-04-10T16:35:54.534Z,18.56
2023-04-10T16:38:21.269Z,18.62
2023-04-10T16:40:47.971Z,18.63
2023-04-10T16:43:14.714Z,18.68
2023-04-10T16:45:41.469Z,18.72
2023-04-10T16:48:08.154Z,18.53
2023-04-10T16:50:36.665Z,18.58
2023-04-10T16:53:03.391Z,18.61
2023-04-10T16:55:30.144Z,18.56
2023-04-10T16:57:56.985Z,18.43
2023-04-10T17:00:23.704Z,18.33
2023-04-10T17:02:50.519Z,18.24
2023-04-10T17:05:17.707Z,18.11
2023-04-10T17:07:45.225Z,18.05
2023-04-10T17:10:12.181Z,17.96
2023-04-10T17:12:39.214Z,17.78
2023-04-10T17:15:10.084Z,17.75
2023-04-10T17:17:37.060Z,17.65
2023-04-10T17:20:04.583Z,17.58
2023-04-10T17:22:31.301Z,17.50
2023-04-10T17:24:58.111Z,17.45
2023-04-10T17:27:24.820Z,17.37
2023-04-10T17:29:51.509Z,17.33
2023-04-10T17:32:18.207Z,17.33
2023-04-10T17:34:44.976Z,17.25
2023-04-10T17:37:11.695Z,17.16
2023-04-10T17:39:38.489Z,17.18
2023-04-10T17:42:05.229Z,17.04
2023-04-10T17:44:32.397Z,16.99
2023-04-10T17:46:59.112Z,16.98
2023-04-10T17:49:26.089Z,16.94
2023-04-10T17:51:53.005Z,16.89
2023-04-10T17:54:19.788Z,16.82
2023-04-10T17:56:46.459Z,16.77
2023-04-10T17:59:13.208Z,16.73
2023-04-10T18:01:40.269Z,16.67
2023-04-10T18:04:07.314Z,16.66
2023-04-10T18:06:34.139Z,16.61
2023-04-10T18:09:00.959Z,16.56
2023-04-10T18:11:28.659Z,16.54
2023-04-10T18:13:55.423Z,16.51
2023-04-10T18:16:22.166Z,16.57
2023-04-10T18:18:48.871Z,16.49
2023-04-10T18:21:15.569Z,16.52
2023-04-10T18:23:42.442Z,16.50
2023-04-10T18:26:09.194Z,16.45
2023-04-10T18:28:36.616Z,16.40
2023-04-10T18:31:03.660Z,16.36
2023-04-10T18:33:30.826Z,16.32
2023-04-10T18:35:58.877Z,16.22
2023-04-10T18:38:26.363Z,16.18
2023-04-10T18:40:57.372Z,16.09
2023-04-10T18:43:27.768Z,16.04
2023-04-10T18:45:54.978Z,15.92
2023-04-10T18:48:22.159Z,15.97
2023-04-10T18:50:52.257Z,15.84
2023-04-10T18:53:19.499Z,15.82
2023-04-10T18:55:52.956Z,15.78
2023-04-10T18:58:23.108Z,15.76
2023-04-10T19:00:50.235Z,15.74
2023-04-10T19:03:17.245Z,15.72
2023-04-10T19:05:44.636Z,15.68
2023-04-10T19:08:14.718Z,15.73
2023-04-10T19:10:42.750Z,15.72
2023-04-10T19:13:11.874Z,15.64
2023-04-10T19:15:40.665Z,15.68
2023-04-10T19:18:07.569Z,15.62
2023-04-10T19:20:48.995Z,15.48
2023-04-10T19:23:18.098Z,15.46
2023-04-10T19:25:45.002Z,15.42
2023-04-10T19:28:12.319Z,15.32
2023-04-10T19:30:39.094Z,15.35
2023-04-10T19:33:06.053Z,15.33
2023-04-10T19:35:32.858Z,15.31
2023-04-10T19:37:59.560Z,15.27
2023-04-10T19:40:26.467Z,15.24
2023-04-10T19:42:53.305Z,15.22
2023-04-10T19:45:21.427Z,15.19
2023-04-10T19:47:50.844Z,15.11
2023-04-10T19:50:17.566Z,15.14
2023-04-10T19:52:44.335Z,15.10
2023-04-10T19:55:11.092Z,15.13
2023-04-10T19:57:37.807Z,15.11
2023-04-10T20:00:06.074Z,15.18
2023-04-10T20:02:39.061Z,15.13
2023-04-10T20:05:06.538Z,15.19
2023-04-10T20:07:33.309Z,15.18
2023-04-10T20:10:03.454Z,15.15
2023-04-10T20:12:33.317Z,15.15
2023-04-10T20:15:00.868Z,15.15
2023-04-10T20:17:28.789Z,15.10
2023-04-10T20:19:55.590Z,15.07
2023-04-10T20:22:22.298Z,15.00
2023-04-10T20:24:49.020Z,14.92
2023-04-10T20:27:15.805Z,14.98
2023-04-10T20:29:42.561Z,15.00
2023-04-10T20:32:09.802Z,15.01
2023-04-10T20:34:37.018Z,14.88
2023-04-10T20:37:06.374Z,14.93
2023-04-10T20:39:33.564Z,14.89
2023-04-10T20:42:00.313Z,14.87
2023-04-10T20:44:27.109Z,14.85
2023-04-10T20:46:55.076Z,14.80
2023-04-10T20:49:22.836Z,14.77
2023-04-10T20:51:49.610Z,14.69
2023-04-10T20:54:19.101Z,14.69
2023-04-10T20:56:46.792Z,14.66
2023-04-10T20:59:13.603Z,14.67
2023-04-10T21:01:40.541Z,14.70
2023-04-10T21:04:07.473Z,14.71
2023-04-10T21:06:34.289Z,14.70
2023-04-10T21:09:01.001Z,14.68
2023-04-10T21:11:27.814Z,14.63
2023-04-10T21:13:54.666Z,14.64
2023-04-10T21:16:21.607Z,14.58
2023-04-10T21:18:48.360Z,14.59
2023-04-10T21:21:15.634Z,14.60
2023-04-10T21:23:42.514Z,14.58
2023-04-10T21:26:09.234Z,14.62
2023-04-10T21:28:36.201Z,14.59
2023-04-10T21:31:03.117Z,14.56
2023-04-10T21:33:29.860Z,14.56
2023-04-10T21:35:56.995Z,14.61
2023-04-10T21:38:24.194Z,14.71
2023-04-10T21:40:51.940Z,14.58
2023-04-10T21:43:19.418Z,14.56
2023-04-10T21:45:46.744Z,14.57
2023-04-10T21:48:13.629Z,14.54
2023-04-10T21:50:40.672Z,14.48
2023-04-10T21:53:07.386Z,14.50
2023-04-10T21:55:34.118Z,14.50
2023-04-10T21:58:00.856Z,14.47
2023-04-10T22:00:28.946Z,14.55
2023-04-10T22:02:56.029Z,14.57
2023-04-10T22:05:24.556Z,14.57
2023-04-10T22:07:52.253Z,14.61
2023-04-10T22:10:19.106Z,14.61
2023-04-10T22:12:48.534Z,14.71
2023-04-10T22:15:16.188Z,14.71
2023-04-10T22:17:43.100Z,14.68
2023-04-10T22:20:10.628Z,14.68
2023-04-10T22:22:40.153Z,14.71
2023-04-10T22:25:07.167Z,14.75
2023-04-10T22:27:33.907Z,14.75
2023-04-10T22:30:03.713Z,14.73
2023-04-10T22:32:31.841Z,14.68
2023-04-10T22:34:59.725Z,14.70
2023-04-10T22:37:27.119Z,14.64
2023-04-10T22:39:56.360Z,14.63
2023-04-10T22:42:23.490Z,14.62
2023-04-10T22:44:50.749Z,14.65
2023-04-10T22:47:17.500Z,14.61
2023-04-10T22:49:45.910Z,14.62
2023-04-10T22:52:16.375Z,14.70
2023-04-10T22:54:43.112Z,14.71
2023-04-10T22:57:09.793Z,14.69
2023-04-10T22:59:37.135Z,14.61
2023-04-10T23:02:04.164Z,14.60
2023-04-10T23:04:31.383Z,14.56
2023-04-10T23:06:58.149Z,14.41
2023-04-10T23:09:25.062Z,14.41
2023-04-10T23:11:51.758Z,14.45
2023-04-10T23:14:18.461Z,14.50
2023-04-10T23:16:49.640Z,14.47
2023-04-10T23:19:17.508Z,14.45
2023-04-10T23:21:44.240Z,14.57
2023-04-10T23:24:10.949Z,14.57
2023-04-10T23:26:37.621Z,14.57
2023-04-10T23:29:04.364Z,14.56
2023-04-10T23:31:31.113Z,14.57
2023-04-10T23:33:57.959Z,14.56
2023-04-10T23:36:24.643Z,14.61
2023-04-10T23:38:51.486Z,14.62
2023-04-10T23:41:18.320Z,14.62
2023-04-10T23:43:45.060Z,14.61
2023-04-10T23:46:11.825Z,14.63
2023-04-10T23:48:38.572Z,14.66
2023-04-10T23:51:06.251Z,14.63
2023-04-10T23:53:33.923Z,14.62
2023-04-10T23:56:01.350Z,14.64
2023-04-10T23:58:29.050Z,14.61
